Time;durP1;ratioP1;P1;durP2;ratioP2;P2;SDS_P1;SDS_P2;PMS_P1;PMS_P2;Temp;Humidity;BMP_temperature;BMP_pressure;BME280_temperature;BME280_humidity;BME280_pressure;Samples;Min_cycle;Max_cycle;Signal;HPM_P1;HPM_P2
2021/05/11 00:00:32;;;;;;;3.80;3.50;;;;;;;;;;2104561;28;20171;-57
2021/05/11 00:01:32;;;;;;;3.67;3.22;;;;;;;;;;2096545;28;20167;-57
2021/05/11 00:02:33;;;;;;;3.85;3.38;;;;;;;;;;2094358;28;20179;-59
2021/05/11 00:03:33;;;;;;;3.42;3.22;;;;;;;;;;2102954;28;20233;-55
2021/05/11 00:04:34;;;;;;;3.88;3.58;;;;;;;;;;2103680;28;20183;-58
2021/05/11 00:05:34;;;;;;;4.00;3.60;;;;;;;;;;2106255;28;20178;-61
2021/05/11 00:06:34;;;;;;;3.80;3.60;;;;;;;;;;2093857;28;20271;-60
2021/05/11 00:07:34;;;;;;;3.60;3.40;;;;;;;;;;2096579;28;20199;-57
2021/05/11 00:08:35;;;;;;;3.97;3.67;;;;;;;;;;2103011;28;20177;-60
2021/05/11 00:09:35;;;;;;;3.83;3.53;;;;;;;;;;2102695;28;20195;-58
2021/05/11 00:10:35;;;;;;;3.95;3.65;;;;;;;;;;2095851;28;20210;-60
2021/05/11 00:11:36;;;;;;;3.80;3.50;;;;;;;;;;2094660;28;20301;-59
2021/05/11 00:12:36;;;;;;;3.92;3.33;;;;;;;;;;2103576;28;20217;-59
2021/05/11 00:13:36;;;;;;;4.88;3.90;;;;;;;;;;2101781;28;20176;-58
2021/05/11 00:14:37;;;;;;;5.13;3.88;;;;;;;;;;2105235;28;20260;-61
2021/05/11 00:15:37;;;;;;;4.38;3.97;;;;;;;;;;2104328;28;20181;-59
2021/05/11 00:16:37;;;;;;;4.70;4.20;;;;;;;;;;2105990;28;20226;-59
2021/05/11 00:17:39;;;;;;;5.05;4.65;;;;;;;;;;2098888;28;20480;-59
2021/05/11 00:18:40;;;;;;;4.93;4.53;;;;;;;;;;2101608;28;21991;-59
2021/05/11 00:19:40;;;;;;;5.55;5.05;;;;;;;;;;2094534;28;20207;-61
2021/05/11 00:20:40;;;;;;;5.10;4.65;;;;;;;;;;2097304;28;20199;-60
2021/05/11 00:21:41;;;;;;;4.82;4.53;;;;;;;;;;2104798;28;20163;-61
2021/05/11 00:22:41;;;;;;;5.80;5.20;;;;;;;;;;2097190;28;20187;-59
2021/05/11 00:23:42;;;;;;;5.40;5.00;;;;;;;;;;2094723;28;20196;-59
2021/05/11 00:24:42;;;;;;;5.22;4.82;;;;;;;;;;2105962;28;20239;-61
2021/05/11 00:25:42;;;;;;;5.45;5.05;;;;;;;;;;2102811;28;20240;-60
2021/05/11 00:26:42;;;;;;;7.78;5.18;;;;;;;;;;2095491;28;20175;-59
2021/05/11 00:27:43;;;;;;;6.13;5.68;;;;;;;;;;2094359;28;20218;-59
2021/05/11 00:28:43;;;;;;;6.63;5.68;;;;;;;;;;2095460;28;20250;-59
2021/05/11 00:29:43;;;;;;;6.75;6.20;;;;;;;;;;2094480;28;20206;-61
2021/05/11 00:30:43;;;;;;;7.25;6.65;;;;;;;;;;2096999;28;20169;-61
2021/05/11 00:31:44;;;;;;;7.65;7.03;;;;;;;;;;2095286;28;20168;-64
2021/05/11 00:32:44;;;;;;;7.28;6.68;;;;;;;;;;2103012;28;20501;-60
2021/05/11 00:33:45;;;;;;;7.18;6.57;;;;;;;;;;2099854;28;20167;-60
2021/05/11 00:34:45;;;;;;;7.22;6.50;;;;;;;;;;2106687;28;20171;-60
2021/05/11 00:35:46;;;;;;;7.75;7.15;;;;;;;;;;2094370;28;20172;-58
2021/05/11 00:36:46;;;;;;;9.80;7.63;;;;;;;;;;2098486;28;20163;-56
2021/05/11 00:37:46;;;;;;;8.27;7.47;;;;;;;;;;2103696;28;20175;-58
2021/05/11 00:38:46;;;;;;;8.77;7.97;;;;;;;;;;2105573;28;20202;-60
2021/05/11 00:39:47;;;;;;;8.65;7.95;;;;;;;;;;2102258;28;20190;-59
2021/05/11 00:40:47;;;;;;;9.13;8.20;;;;;;;;;;2106784;28;20932;-57
2021/05/11 00:41:47;;;;;;;10.40;8.32;;;;;;;;;;2103563;28;20177;-61
2021/05/11 00:42:47;;;;;;;8.85;8.05;;;;;;;;;;2106712;28;20205;-59
2021/05/11 00:43:48;;;;;;;8.60;7.85;;;;;;;;;;2093853;28;20190;-59
2021/05/11 00:44:48;;;;;;;9.77;8.90;;;;;;;;;;2092776;28;20180;-60
2021/05/11 00:45:48;;;;;;;9.68;8.73;;;;;;;;;;2102921;28;20433;-60
2021/05/11 00:46:57;;;;;;;9.45;8.50;;;;;;;;;;2098910;28;20537;-60
2021/05/11 00:47:57;;;;;;;9.85;8.57;;;;;;;;;;2084305;28;20185;-57
2021/05/11 00:48:58;;;;;;;9.27;8.48;;;;;;;;;;2094687;28;20183;-58
2021/05/11 00:49:58;;;;;;;11.35;9.25;;;;;;;;;;2102944;28;20235;-56
2021/05/11 00:50:58;;;;;;;10.00;9.10;;;;;;;;;;2103811;28;20171;-59
2021/05/11 00:52:00;;;;;;;9.07;8.38;;;;;;;;;;2100671;28;20183;-58
2021/05/11 00:53:00;;;;;;;11.10;9.27;;;;;;;;;;2106181;28;20196;-55
2021/05/11 00:54:01;;;;;;;9.90;9.00;;;;;;;;;;2099519;28;20245;-56
2021/05/11 00:55:01;;;;;;;10.45;9.65;;;;;;;;;;2103841;28;20194;-58
2021/05/11 00:56:02;;;;;;;10.57;9.68;;;;;;;;;;2094377;28;20211;-61
2021/05/11 00:57:03;;;;;;;10.25;9.25;;;;;;;;;;2098854;28;20179;-60
2021/05/11 00:58:04;;;;;;;10.57;9.68;;;;;;;;;;2086505;28;20180;-60
2021/05/11 00:59:10;;;;;;;10.75;9.85;;;;;;;;;;2079563;28;20168;-59
2021/05/11 01:00:10;;;;;;;11.77;9.93;;;;;;;;;;2086304;28;20206;-60
2021/05/11 01:01:11;;;;;;;10.50;9.50;;;;;;;;;;2097824;28;20159;-60
2021/05/11 01:02:11;;;;;;;11.05;10.15;;;;;;;;;;2100614;28;20193;-59
2021/05/11 01:03:12;;;;;;;11.63;10.60;;;;;;;;;;2106304;28;20252;-60
2021/05/11 01:04:12;;;;;;;13.10;11.55;;;;;;;;;;2098066;28;20588;-61
2021/05/11 01:05:13;;;;;;;12.07;10.77;;;;;;;;;;2098671;28;20210;-59
2021/05/11 01:06:13;;;;;;;12.10;10.95;;;;;;;;;;2094701;28;20214;-58
2021/05/11 01:07:13;;;;;;;12.32;10.80;;;;;;;;;;2103726;28;20255;-60
2021/05/11 01:08:14;;;;;;;13.55;11.25;;;;;;;;;;2099073;28;20308;-60
2021/05/11 01:09:15;;;;;;;13.10;11.90;;;;;;;;;;2102083;28;20187;-59
2021/05/11 01:10:15;;;;;;;13.52;12.15;;;;;;;;;;2103217;28;20232;-60
2021/05/11 01:11:15;;;;;;;13.57;12.27;;;;;;;;;;2106394;28;20609;-57
2021/05/11 01:12:16;;;;;;;13.57;12.30;;;;;;;;;;2102952;28;20190;-60
2021/05/11 01:13:16;;;;;;;13.40;12.20;;;;;;;;;;2107026;28;20163;-60
2021/05/11 01:14:16;;;;;;;14.15;12.85;;;;;;;;;;2102139;28;20199;-60
2021/05/11 01:15:17;;;;;;;13.82;12.43;;;;;;;;;;2098237;28;20166;-57
2021/05/11 01:16:18;;;;;;;13.73;12.32;;;;;;;;;;2094740;28;20214;-60
2021/05/11 01:17:25;;;;;;;14.27;13.00;;;;;;;;;;2099204;28;20170;-59
2021/05/11 01:18:29;;;;;;;13.75;12.45;;;;;;;;;;2082117;28;20211;-59
2021/05/11 01:19:44;;;;;;;14.57;13.13;;;;;;;;;;2098021;28;20206;-60
2021/05/11 01:20:48;;;;;;;15.07;13.57;;;;;;;;;;2097239;28;20185;-59
2021/05/11 01:24:24;;;;;;;13.90;12.60;;;;;;;;;;2102001;28;20239;-57
2021/05/11 01:25:28;;;;;;;14.57;13.13;;;;;;;;;;2102076;28;20163;-56
2021/05/11 01:26:44;;;;;;;14.43;12.93;;;;;;;;;;2103560;28;20278;-60
2021/05/11 01:29:05;;;;;;;16.40;14.75;;;;;;;;;;2102902;28;20271;-56
2021/05/11 01:47:43;;;;;;;15.70;13.88;;;;;;;;;;2095545;28;20168;-60
2021/05/11 01:49:04;;;;;;;17.13;15.27;;;;;;;;;;2097154;28;20167;-60
2021/05/11 01:50:19;;;;;;;17.63;15.07;;;;;;;;;;2096406;28;20839;-60
2021/05/11 01:52:54;;;;;;;16.13;14.55;;;;;;;;;;2091233;28;20194;-58
2021/05/11 01:55:17;;;;;;;13.65;12.35;;;;;;;;;;2102288;28;20169;-60
2021/05/11 02:23:07;;;;;;;16.58;15.05;;;;;;;;;;2098810;28;20269;-58
2021/05/11 02:24:10;;;;;;;16.42;14.82;;;;;;;;;;2088744;28;20706;-57
2021/05/11 02:25:13;;;;;;;16.48;14.77;;;;;;;;;;2092675;28;20175;-57
2021/05/11 02:26:13;;;;;;;16.58;14.85;;;;;;;;;;2103541;28;20696;-58
2021/05/11 02:27:13;;;;;;;17.05;15.45;;;;;;;;;;2105201;28;20186;-58
2021/05/11 02:28:14;;;;;;;17.10;15.27;;;;;;;;;;2103343;28;20305;-55
2021/05/11 02:29:14;;;;;;;17.25;15.45;;;;;;;;;;2092737;28;20184;-57
2021/05/11 02:30:15;;;;;;;16.33;14.45;;;;;;;;;;2097057;28;20197;-58
2021/05/11 02:31:15;;;;;;;16.23;14.73;;;;;;;;;;2113889;28;20178;-58
2021/05/11 02:32:16;;;;;;;16.92;15.32;;;;;;;;;;2110828;28;20225;-56
2021/05/11 02:33:17;;;;;;;16.58;15.07;;;;;;;;;;2110586;28;20174;-59
2021/05/11 02:34:17;;;;;;;16.17;14.77;;;;;;;;;;2109733;28;20178;-57
2021/05/11 02:35:18;;;;;;;15.73;14.32;;;;;;;;;;2115449;28;20238;-58
2021/05/11 02:36:18;;;;;;;16.48;14.98;;;;;;;;;;2112101;28;20185;-59
2021/05/11 02:37:18;;;;;;;16.17;14.57;;;;;;;;;;2110024;28;20221;-59
2021/05/11 02:38:19;;;;;;;15.77;14.27;;;;;;;;;;2104832;28;20167;-59
2021/05/11 02:39:19;;;;;;;15.85;14.32;;;;;;;;;;2106757;28;20650;-59
2021/05/11 02:40:20;;;;;;;16.55;15.05;;;;;;;;;;2109057;28;20277;-58
2021/05/11 02:41:20;;;;;;;16.10;14.50;;;;;;;;;;2115842;28;20164;-55
2021/05/11 02:42:21;;;;;;;16.55;14.98;;;;;;;;;;2101797;28;20185;-57
2021/05/11 02:43:26;;;;;;;15.18;13.77;;;;;;;;;;2098373;28;20171;-58
2021/05/11 02:44:26;;;;;;;16.40;14.82;;;;;;;;;;2108624;28;20689;-60
2021/05/11 02:45:26;;;;;;;16.83;15.25;;;;;;;;;;2109972;28;20174;-60
2021/05/11 02:46:27;;;;;;;17.40;15.55;;;;;;;;;;2107692;28;20178;-58
2021/05/11 02:47:27;;;;;;;17.88;16.15;;;;;;;;;;2115185;28;20673;-58
2021/05/11 02:48:27;;;;;;;17.48;15.77;;;;;;;;;;2099495;28;20182;-58
2021/05/11 02:49:27;;;;;;;17.08;15.38;;;;;;;;;;2093718;28;20271;-60
2021/05/11 02:50:29;;;;;;;16.73;15.15;;;;;;;;;;2107534;28;20251;-58
2021/05/11 02:51:29;;;;;;;16.80;15.20;;;;;;;;;;2115821;28;20222;-57
2021/05/11 02:52:30;;;;;;;18.13;16.38;;;;;;;;;;2109637;28;20751;-58
2021/05/11 02:53:30;;;;;;;17.70;15.80;;;;;;;;;;2113503;28;20169;-60
2021/05/11 02:54:32;;;;;;;17.40;15.70;;;;;;;;;;2107863;28;20174;-58
2021/05/11 02:55:32;;;;;;;17.48;15.73;;;;;;;;;;2111261;28;20219;-59
2021/05/11 02:56:32;;;;;;;18.13;16.42;;;;;;;;;;2099924;28;20576;-59
2021/05/11 02:57:32;;;;;;;17.88;16.05;;;;;;;;;;2100110;28;20323;-55
2021/05/11 02:58:35;;;;;;;16.55;14.95;;;;;;;;;;2107059;28;20891;-55
2021/05/11 02:59:35;;;;;;;17.38;15.77;;;;;;;;;;2105398;28;20182;-58
2021/05/11 03:00:35;;;;;;;17.58;15.88;;;;;;;;;;2106306;28;20170;-60
2021/05/11 03:01:36;;;;;;;17.27;15.57;;;;;;;;;;2112803;28;20169;-58
2021/05/11 03:02:36;;;;;;;17.15;15.50;;;;;;;;;;2111461;28;20202;-58
2021/05/11 03:03:36;;;;;;;16.70;15.10;;;;;;;;;;2114964;28;20712;-60
2021/05/11 03:04:36;;;;;;;16.13;14.55;;;;;;;;;;2107567;28;20198;-59
2021/05/11 03:05:37;;;;;;;16.27;14.68;;;;;;;;;;2098621;28;20217;-59
2021/05/11 03:06:37;;;;;;;15.90;14.40;;;;;;;;;;2087838;28;20184;-59
2021/05/11 03:07:37;;;;;;;13.27;12.07;;;;;;;;;;2099377;28;20185;-59
2021/05/11 03:08:42;;;;;;;12.10;11.00;;;;;;;;;;2107268;28;20170;-59
2021/05/11 03:09:42;;;;;;;10.93;9.93;;;;;;;;;;2112142;28;20210;-57
2021/05/11 03:10:42;;;;;;;10.20;9.38;;;;;;;;;;2108342;28;20162;-58
2021/05/11 03:11:42;;;;;;;9.43;8.63;;;;;;;;;;2106887;28;20186;-58
2021/05/11 03:12:43;;;;;;;8.68;7.80;;;;;;;;;;2110188;28;20249;-58
2021/05/11 03:13:43;;;;;;;7.35;6.85;;;;;;;;;;2109974;28;20310;-56
2021/05/11 03:14:43;;;;;;;7.53;7.03;;;;;;;;;;2105849;28;20590;-56
2021/05/11 03:15:44;;;;;;;7.28;6.70;;;;;;;;;;2097217;28;20175;-59
2021/05/11 03:16:44;;;;;;;7.43;6.90;;;;;;;;;;2089944;28;20167;-61
2021/05/11 03:17:44;;;;;;;7.45;6.75;;;;;;;;;;2096964;28;20159;-59
2021/05/11 03:18:45;;;;;;;6.40;6.00;;;;;;;;;;2110060;28;20170;-53
2021/05/11 03:19:45;;;;;;;6.30;5.80;;;;;;;;;;2109193;28;20559;-59
2021/05/11 03:20:45;;;;;;;6.13;5.72;;;;;;;;;;2106006;28;20178;-58
2021/05/11 03:21:45;;;;;;;6.63;6.13;;;;;;;;;;2097133;28;20167;-59
2021/05/11 03:22:46;;;;;;;6.22;5.82;;;;;;;;;;2100840;28;20174;-59
2021/05/11 03:23:46;;;;;;;5.50;5.20;;;;;;;;;;2109422;28;20169;-59
2021/05/11 03:24:46;;;;;;;5.95;5.43;;;;;;;;;;2093262;28;20659;-56
2021/05/11 03:25:46;;;;;;;5.95;5.55;;;;;;;;;;2088760;28;20738;-58
2021/05/11 03:26:47;;;;;;;5.93;5.53;;;;;;;;;;2101818;28;20236;-58
2021/05/11 03:27:47;;;;;;;5.20;4.85;;;;;;;;;;2115181;28;20173;-58
2021/05/11 03:28:47;;;;;;;5.57;5.07;;;;;;;;;;2100468;28;20323;-56
2021/05/11 03:29:48;;;;;;;5.55;5.05;;;;;;;;;;2096082;28;20205;-57
2021/05/11 03:30:48;;;;;;;5.50;5.10;;;;;;;;;;2105287;28;20185;-55
2021/05/11 03:31:48;;;;;;;5.85;5.45;;;;;;;;;;2105858;28;20186;-56
2021/05/11 03:32:48;;;;;;;5.10;4.70;;;;;;;;;;2097186;28;20205;-58
2021/05/11 03:33:49;;;;;;;5.40;5.00;;;;;;;;;;2101187;28;20183;-58
2021/05/11 03:34:49;;;;;;;4.85;4.55;;;;;;;;;;2104025;28;20166;-57
2021/05/11 03:35:50;;;;;;;5.30;5.00;;;;;;;;;;2114097;28;20557;-60
2021/05/11 03:36:50;;;;;;;5.20;4.90;;;;;;;;;;2102509;28;20177;-58
2021/05/11 03:37:52;;;;;;;4.80;4.50;;;;;;;;;;2097711;28;20174;-62
2021/05/11 03:38:54;;;;;;;4.65;4.43;;;;;;;;;;2111517;28;20586;-57
2021/05/11 03:39:55;;;;;;;5.30;5.00;;;;;;;;;;2104084;28;20187;-54
2021/05/11 03:40:55;;;;;;;4.85;4.45;;;;;;;;;;2102547;28;20644;-56
2021/05/11 03:42:00;;;;;;;5.28;4.88;;;;;;;;;;2105673;28;20167;-54
2021/05/11 03:43:04;;;;;;;4.90;4.38;;;;;;;;;;2114524;28;20684;-54
2021/05/11 03:44:11;;;;;;;4.68;4.28;;;;;;;;;;2098153;28;20278;-55
2021/05/11 03:45:13;;;;;;;4.57;4.28;;;;;;;;;;2099270;28;20170;-56
2021/05/11 03:46:13;;;;;;;4.72;4.40;;;;;;;;;;2105505;28;20238;-57
2021/05/11 03:47:16;;;;;;;4.60;4.25;;;;;;;;;;2106860;28;20179;-57
2021/05/11 03:48:16;;;;;;;4.43;4.03;;;;;;;;;;2099481;28;20186;-57
2021/05/11 03:49:16;;;;;;;6.25;4.28;;;;;;;;;;2110085;28;20602;-59
2021/05/11 03:50:17;;;;;;;4.95;4.65;;;;;;;;;;2107757;28;20619;-57
2021/05/11 03:51:17;;;;;;;4.53;4.22;;;;;;;;;;2108369;28;20216;-54
2021/05/11 03:52:17;;;;;;;4.78;4.47;;;;;;;;;;2109981;28;20194;-56
2021/05/11 03:53:18;;;;;;;5.30;4.90;;;;;;;;;;2105680;28;20223;-59
2021/05/11 03:54:18;;;;;;;5.03;4.72;;;;;;;;;;2096673;28;20221;-58
2021/05/11 03:55:18;;;;;;;5.45;4.95;;;;;;;;;;2088322;28;20630;-58
2021/05/11 03:56:18;;;;;;;5.38;4.95;;;;;;;;;;2097309;28;20183;-56
2021/05/11 03:57:19;;;;;;;4.53;4.20;;;;;;;;;;2114230;28;20192;-58
2021/05/11 03:58:19;;;;;;;5.70;4.15;;;;;;;;;;2107390;28;20179;-58
2021/05/11 03:59:20;;;;;;;4.70;4.43;;;;;;;;;;2093202;28;20171;-56
2021/05/11 04:00:21;;;;;;;4.30;4.00;;;;;;;;;;2096924;28;20167;-58
2021/05/11 04:01:21;;;;;;;4.78;4.43;;;;;;;;;;2114447;28;20173;-57
2021/05/11 04:02:21;;;;;;;5.05;4.70;;;;;;;;;;2111954;28;20210;-57
2021/05/11 04:03:22;;;;;;;4.95;4.68;;;;;;;;;;2111278;28;20172;-57
2021/05/11 04:04:22;;;;;;;4.75;4.45;;;;;;;;;;2105769;28;20185;-58
2021/05/11 04:05:23;;;;;;;4.63;4.32;;;;;;;;;;2114826;28;20166;-59
2021/05/11 04:06:23;;;;;;;4.93;4.53;;;;;;;;;;2109294;28;20698;-56
2021/05/11 04:07:23;;;;;;;5.75;5.25;;;;;;;;;;2100993;28;20167;-58
2021/05/11 04:10:46;;;;;;;6.45;5.57;;;;;;;;;;2103117;28;20299;-57
2021/05/11 04:16:29;;;;;;;5.43;5.10;;;;;;;;;;2105778;28;20177;-59
2021/05/11 04:17:29;;;;;;;8.75;5.78;;;;;;;;;;2111422;28;20205;-57
2021/05/11 04:18:29;;;;;;;7.57;5.55;;;;;;;;;;2108346;28;20158;-58
2021/05/11 04:19:30;;;;;;;12.32;5.80;;;;;;;;;;2111058;28;20165;-58
2021/05/11 04:20:30;;;;;;;6.18;5.65;;;;;;;;;;2101874;28;20570;-58
2021/05/11 04:21:31;;;;;;;9.52;5.53;;;;;;;;;;2096277;28;20191;-57
2021/05/11 04:22:31;;;;;;;6.15;5.43;;;;;;;;;;2110332;28;20173;-58
2021/05/11 04:23:31;;;;;;;6.13;5.20;;;;;;;;;;2095822;28;20855;-58
2021/05/11 04:24:31;;;;;;;5.68;5.30;;;;;;;;;;2098233;28;20201;-57
2021/05/11 04:25:32;;;;;;;6.53;5.13;;;;;;;;;;2097862;28;20178;-61
2021/05/11 04:26:32;;;;;;;5.20;4.80;;;;;;;;;;2096488;28;20210;-58
2021/05/11 04:27:33;;;;;;;4.63;4.43;;;;;;;;;;2112559;28;20253;-57
2021/05/11 04:28:34;;;;;;;4.97;4.57;;;;;;;;;;2108009;28;20212;-58
2021/05/11 04:29:35;;;;;;;9.40;6.90;;;;;;;;;;2107662;28;20817;-56
2021/05/11 04:30:35;;;;;;;7.60;6.30;;;;;;;;;;2104966;28;20201;-58
2021/05/11 04:31:37;;;;;;;17.08;7.85;;;;;;;;;;2112507;28;20176;-56
2021/05/11 04:32:38;;;;;;;6.10;5.43;;;;;;;;;;2112921;28;20197;-58
2021/05/11 04:33:38;;;;;;;5.63;5.22;;;;;;;;;;2110454;28;20206;-56
2021/05/11 04:34:38;;;;;;;5.38;4.88;;;;;;;;;;2096697;28;20555;-58
2021/05/11 04:35:39;;;;;;;5.25;4.85;;;;;;;;;;2097126;28;20269;-55
2021/05/11 04:36:39;;;;;;;5.43;5.05;;;;;;;;;;2111282;28;20181;-57
2021/05/11 04:37:40;;;;;;;5.40;4.90;;;;;;;;;;2112637;28;20170;-55
2021/05/11 04:38:40;;;;;;;5.90;5.40;;;;;;;;;;2112724;28;20178;-58
2021/05/11 04:39:41;;;;;;;5.57;5.00;;;;;;;;;;2098146;28;20226;-58
2021/05/11 04:40:41;;;;;;;5.30;4.78;;;;;;;;;;2096283;28;20171;-57
2021/05/11 04:41:41;;;;;;;5.70;5.20;;;;;;;;;;2103217;28;20174;-58
2021/05/11 04:42:43;;;;;;;5.38;4.97;;;;;;;;;;2105023;28;20669;-56
2021/05/11 04:43:45;;;;;;;5.10;4.80;;;;;;;;;;2096677;28;20599;-58
2021/05/11 04:44:45;;;;;;;5.72;4.43;;;;;;;;;;2096179;28;20202;-57
2021/05/11 04:45:46;;;;;;;4.70;4.40;;;;;;;;;;2106382;28;20262;-58
2021/05/11 04:46:57;;;;;;;5.22;4.82;;;;;;;;;;2113692;28;20205;-57
2021/05/11 04:47:57;;;;;;;5.03;4.57;;;;;;;;;;2100187;28;20178;-58
2021/05/11 04:48:58;;;;;;;4.60;4.30;;;;;;;;;;2108975;28;20197;-58
2021/05/11 04:49:58;;;;;;;5.30;5.00;;;;;;;;;;2100254;28;20293;-57
2021/05/11 04:50:58;;;;;;;5.75;5.15;;;;;;;;;;2109742;28;20257;-57
2021/05/11 04:51:59;;;;;;;5.60;5.10;;;;;;;;;;2112114;28;20170;-58
2021/05/11 04:53:00;;;;;;;4.78;4.47;;;;;;;;;;2114131;28;20534;-57
2021/05/11 04:54:00;;;;;;;5.13;4.72;;;;;;;;;;2113968;28;20180;-56
2021/05/11 04:55:00;;;;;;;4.85;4.45;;;;;;;;;;2110112;28;20177;-59
2021/05/11 04:56:00;;;;;;;4.88;4.40;;;;;;;;;;2106578;28;20158;-58
2021/05/11 04:57:01;;;;;;;5.30;4.90;;;;;;;;;;2111498;28;20172;-57
2021/05/11 04:58:01;;;;;;;5.05;4.60;;;;;;;;;;2114353;28;20663;-57
2021/05/11 04:59:01;;;;;;;6.90;4.63;;;;;;;;;;2107839;28;20552;-57
2021/05/11 05:00:04;;;;;;;5.18;4.68;;;;;;;;;;2095877;28;20213;-57
2021/05/11 05:01:04;;;;;;;4.75;4.45;;;;;;;;;;2100710;28;20177;-58
2021/05/11 05:02:05;;;;;;;4.95;4.65;;;;;;;;;;2097217;28;20538;-58
2021/05/11 05:03:10;;;;;;;5.60;5.10;;;;;;;;;;2099987;28;20162;-57
2021/05/11 05:04:11;;;;;;;5.03;4.53;;;;;;;;;;2104315;28;20631;-57
2021/05/11 05:05:12;;;;;;;5.28;4.60;;;;;;;;;;2100830;28;20174;-59
2021/05/11 05:06:12;;;;;;;5.03;4.63;;;;;;;;;;2096964;28;20170;-58
2021/05/11 05:07:13;;;;;;;4.57;4.28;;;;;;;;;;2108602;28;20270;-57
2021/05/11 05:08:13;;;;;;;5.03;4.45;;;;;;;;;;2111714;28;20244;-58
2021/05/11 05:09:13;;;;;;;4.53;4.18;;;;;;;;;;2109819;28;20605;-59
2021/05/11 05:10:13;;;;;;;5.07;4.65;;;;;;;;;;2108971;28;20185;-57
2021/05/11 05:11:17;;;;;;;4.88;4.57;;;;;;;;;;2113645;28;20196;-55
2021/05/11 05:12:17;;;;;;;5.18;4.78;;;;;;;;;;2100435;28;20190;-57
2021/05/11 05:13:20;;;;;;;4.68;4.32;;;;;;;;;;2100704;28;20159;-58
2021/05/11 05:14:20;;;;;;;4.47;4.18;;;;;;;;;;2096376;28;20159;-58
2021/05/11 05:15:20;;;;;;;5.53;5.00;;;;;;;;;;2093174;28;20183;-59
2021/05/11 05:16:20;;;;;;;5.15;4.85;;;;;;;;;;2106600;28;20531;-57
2021/05/11 05:17:21;;;;;;;5.22;4.82;;;;;;;;;;2092702;28;20676;-57
2021/05/11 05:18:21;;;;;;;4.45;4.15;;;;;;;;;;2095106;28;20213;-58
2021/05/11 05:19:22;;;;;;;5.63;5.18;;;;;;;;;;2102241;28;20669;-57
2021/05/11 05:20:22;;;;;;;5.85;5.38;;;;;;;;;;2096369;28;20198;-59
2021/05/11 05:21:22;;;;;;;5.72;5.18;;;;;;;;;;2100847;28;20167;-57
2021/05/11 05:22:23;;;;;;;6.78;5.22;;;;;;;;;;2106358;28;20681;-58
2021/05/11 05:23:30;;;;;;;5.82;5.32;;;;;;;;;;2111101;28;20172;-57
2021/05/11 05:24:37;;;;;;;5.85;5.47;;;;;;;;;;2093135;28;20184;-59
2021/05/11 05:25:38;;;;;;;5.50;5.10;;;;;;;;;;2099476;28;20167;-59
2021/05/11 05:26:39;;;;;;;5.82;5.30;;;;;;;;;;2098268;28;20200;-55
2021/05/11 05:27:45;;;;;;;6.38;5.88;;;;;;;;;;2098784;28;20607;-56
2021/05/11 05:28:45;;;;;;;5.72;5.22;;;;;;;;;;2099115;28;20224;-58
2021/05/11 05:29:46;;;;;;;5.38;4.97;;;;;;;;;;2099769;28;20266;-61
2021/05/11 05:30:46;;;;;;;6.68;6.18;;;;;;;;;;2106205;28;20692;-56
2021/05/11 05:31:46;;;;;;;6.30;5.90;;;;;;;;;;2104931;28;20662;-59
2021/05/11 05:32:47;;;;;;;5.85;5.45;;;;;;;;;;2113364;28;20626;-58
2021/05/11 05:33:47;;;;;;;6.85;6.30;;;;;;;;;;2111180;28;20630;-57
2021/05/11 05:34:48;;;;;;;5.50;5.00;;;;;;;;;;2114565;28;20173;-58
2021/05/11 05:35:48;;;;;;;6.13;5.45;;;;;;;;;;2110420;28;20166;-60
2021/05/11 05:36:48;;;;;;;5.43;5.13;;;;;;;;;;2112564;28;20634;-58
2021/05/11 05:37:48;;;;;;;6.53;5.93;;;;;;;;;;2112654;28;20173;-59
2021/05/11 05:38:49;;;;;;;5.22;4.82;;;;;;;;;;2098595;28;20250;-58
2021/05/11 05:39:54;;;;;;;6.65;6.05;;;;;;;;;;2086368;28;20198;-57
2021/05/11 05:41:30;;;;;;;6.70;6.15;;;;;;;;;;2099947;28;20167;-58
2021/05/11 05:42:22;;;;;;;7.22;5.97;;;;;;;;;;2106356;28;20220;-56
2021/05/11 05:43:22;;;;;;;5.72;5.32;;;;;;;;;;2108271;28;20182;-58
2021/05/11 05:44:23;;;;;;;6.28;5.68;;;;;;;;;;2112369;28;20177;-56
2021/05/11 05:45:23;;;;;;;5.80;5.40;;;;;;;;;;2106264;28;20530;-60
2021/05/11 05:46:23;;;;;;;5.63;5.22;;;;;;;;;;2103600;28;20216;-59
2021/05/11 05:47:24;;;;;;;5.22;4.82;;;;;;;;;;2102898;28;20171;-60
2021/05/11 05:48:24;;;;;;;4.43;4.13;;;;;;;;;;2091564;28;20748;-61
2021/05/11 05:49:28;;;;;;;4.78;4.47;;;;;;;;;;2090622;28;20551;-62
2021/05/11 05:50:30;;;;;;;4.88;4.47;;;;;;;;;;2098822;28;20266;-58
2021/05/11 05:51:31;;;;;;;4.05;3.75;;;;;;;;;;2104627;28;20181;-60
2021/05/11 05:52:35;;;;;;;4.38;4.07;;;;;;;;;;2109224;28;20209;-55
2021/05/11 05:53:40;;;;;;;4.40;4.00;;;;;;;;;;2107591;28;20189;-55
2021/05/11 05:54:40;;;;;;;3.28;3.08;;;;;;;;;;2113774;28;20248;-59
2021/05/11 05:55:41;;;;;;;3.47;3.17;;;;;;;;;;2096778;28;20229;-55
2021/05/11 05:56:41;;;;;;;3.42;3.22;;;;;;;;;;2100748;28;20178;-56
2021/05/11 05:57:42;;;;;;;3.53;3.22;;;;;;;;;;2104006;28;20592;-55
2021/05/11 05:58:45;;;;;;;3.38;3.13;;;;;;;;;;2099738;28;20663;-58
2021/05/11 05:59:45;;;;;;;3.25;3.05;;;;;;;;;;2098738;28;20215;-57
2021/05/11 06:00:47;;;;;;;5.18;3.30;;;;;;;;;;2101962;28;20208;-54
2021/05/11 06:01:48;;;;;;;3.70;2.80;;;;;;;;;;2089738;28;20174;-55
2021/05/11 06:02:51;;;;;;;3.58;3.28;;;;;;;;;;2098284;28;20179;-54
2021/05/11 06:04:01;;;;;;;3.20;3.00;;;;;;;;;;2105205;28;20190;-56
2021/05/11 06:05:01;;;;;;;2.65;2.55;;;;;;;;;;2115323;28;20182;-51
2021/05/11 06:06:03;;;;;;;3.38;3.13;;;;;;;;;;2106830;28;20205;-56
2021/05/11 06:07:04;;;;;;;3.17;2.67;;;;;;;;;;2101752;28;20210;-54
2021/05/11 06:08:04;;;;;;;3.28;2.95;;;;;;;;;;2109586;28;20239;-56
2021/05/11 06:09:09;;;;;;;3.10;2.92;;;;;;;;;;2113977;28;20264;-55
2021/05/11 06:10:10;;;;;;;2.70;2.60;;;;;;;;;;2104031;28;20202;-55
2021/05/11 06:11:58;;;;;;;3.22;2.90;;;;;;;;;;2100945;28;20655;-55
2021/05/11 06:13:55;;;;;;;3.15;2.95;;;;;;;;;;2097843;28;20202;-55
2021/05/11 06:17:27;;;;;;;4.53;3.65;;;;;;;;;;2111956;28;20170;-53
2021/05/11 06:18:27;;;;;;;4.18;3.78;;;;;;;;;;2108471;28;20174;-53
2021/05/11 06:19:28;;;;;;;3.15;2.95;;;;;;;;;;2099786;28;20178;-53
2021/05/11 06:20:28;;;;;;;3.15;2.60;;;;;;;;;;2099241;28;20183;-56
2021/05/11 06:21:28;;;;;;;3.33;3.13;;;;;;;;;;2110215;28;20198;-56
2021/05/11 06:22:29;;;;;;;3.28;2.95;;;;;;;;;;2112262;28;20296;-54
2021/05/11 06:23:29;;;;;;;2.88;2.70;;;;;;;;;;2109428;28;20276;-62
2021/05/11 06:24:29;;;;;;;2.67;2.47;;;;;;;;;;2111255;28;20181;-54
2021/05/11 06:25:29;;;;;;;3.10;2.90;;;;;;;;;;2113062;28;20598;-56
2021/05/11 06:26:30;;;;;;;2.92;2.72;;;;;;;;;;2097691;28;20171;-54
2021/05/11 06:27:30;;;;;;;2.95;2.75;;;;;;;;;;2098369;28;20182;-55
2021/05/11 06:28:36;;;;;;;2.80;2.65;;;;;;;;;;2098069;28;20877;-53
2021/05/11 06:29:38;;;;;;;3.25;3.05;;;;;;;;;;2099516;28;20239;-54
2021/05/11 06:30:38;;;;;;;2.78;2.58;;;;;;;;;;2114113;28;20186;-54
2021/05/11 06:31:39;;;;;;;3.22;2.80;;;;;;;;;;2097975;28;20198;-52
2021/05/11 06:32:40;;;;;;;2.60;2.40;;;;;;;;;;2097500;28;20601;-55
2021/05/11 06:33:40;;;;;;;4.38;3.58;;;;;;;;;;2109595;28;20273;-56
2021/05/11 06:34:47;;;;;;;3.28;3.05;;;;;;;;;;2100579;28;20182;-57
2021/05/11 06:35:51;;;;;;;2.97;2.78;;;;;;;;;;2108791;28;20212;-52
2021/05/11 06:36:52;;;;;;;3.45;2.40;;;;;;;;;;2099714;28;20163;-54
2021/05/11 06:37:56;;;;;;;2.42;2.33;;;;;;;;;;2107748;28;20181;-55
2021/05/11 06:38:57;;;;;;;3.03;2.70;;;;;;;;;;2098992;28;20185;-56
2021/05/11 06:39:58;;;;;;;2.47;2.28;;;;;;;;;;2092694;28;20194;-55
2021/05/11 06:40:59;;;;;;;3.42;2.45;;;;;;;;;;2097543;28;20166;-55
2021/05/11 06:41:59;;;;;;;3.00;2.80;;;;;;;;;;2108695;28;20188;-54
2021/05/11 06:43:00;;;;;;;3.47;2.90;;;;;;;;;;2096396;28;20607;-56
2021/05/11 06:44:06;;;;;;;2.97;2.78;;;;;;;;;;2090044;28;20246;-59
2021/05/11 06:46:59;;;;;;;2.80;2.53;;;;;;;;;;2109818;28;20566;-54
2021/05/11 06:47:58;;;;;;;2.55;2.45;;;;;;;;;;2105410;28;20185;-58
2021/05/11 06:53:27;;;;;;;3.10;2.90;;;;;;;;;;2105651;28;20231;-55
2021/05/11 06:54:27;;;;;;;11.57;10.35;;;;;;;;;;2094638;28;20186;-54
2021/05/11 06:55:27;;;;;;;5.80;5.30;;;;;;;;;;2102617;28;20183;-56
2021/05/11 06:56:30;;;;;;;8.90;7.38;;;;;;;;;;2107896;28;20170;-55
2021/05/11 06:57:30;;;;;;;22.63;18.50;;;;;;;;;;2111737;28;20207;-53
2021/05/11 06:58:30;;;;;;;6.70;6.15;;;;;;;;;;2108995;28;20211;-54
2021/05/11 06:59:31;;;;;;;11.35;9.40;;;;;;;;;;2107364;28;20670;-54
2021/05/11 07:00:31;;;;;;;9.30;7.03;;;;;;;;;;2106279;28;20221;-55
2021/05/11 07:01:31;;;;;;;4.18;3.78;;;;;;;;;;2099032;28;20755;-53
2021/05/11 07:02:32;;;;;;;3.67;3.38;;;;;;;;;;2093835;28;20701;-51
2021/05/11 07:03:32;;;;;;;4.25;3.90;;;;;;;;;;2106906;28;20174;-53
2021/05/11 07:04:32;;;;;;;3.40;3.20;;;;;;;;;;2115332;28;20194;-51
2021/05/11 07:05:35;;;;;;;2.88;2.50;;;;;;;;;;2113359;28;20698;-52
2021/05/11 07:06:37;;;;;;;3.50;3.20;;;;;;;;;;2098896;28;20182;-55
2021/05/11 07:07:39;;;;;;;2.88;2.67;;;;;;;;;;2097968;28;20270;-52
2021/05/11 07:08:50;;;;;;;2.78;2.58;;;;;;;;;;2113993;28;20172;-55
2021/05/11 07:10:16;;;;;;;3.17;2.78;;;;;;;;;;2110131;28;20703;-53
2021/05/11 07:13:38;;;;;;;3.60;3.30;;;;;;;;;;2105483;28;20178;-54
2021/05/11 07:14:38;;;;;;;4.20;3.80;;;;;;;;;;2113850;28;20244;-54
2021/05/11 07:15:42;;;;;;;4.43;3.70;;;;;;;;;;2100529;28;20174;-51